createdAt,value
2019-03-19T00:01:35.207Z,87524.08
2019-03-19T00:04:01.935Z,87513.93
2019-03-19T00:06:28.681Z,87522.16
2019-03-19T00:08:55.549Z,87514.41
2019-03-19T00:11:22.278Z,87514.16
2019-03-19T00:13:49.031Z,87508.53
2019-03-19T00:16:15.824Z,87524.52
2019-03-19T00:18:42.516Z,87518.73
2019-03-19T00:21:09.279Z,87525.04
2019-03-19T00:23:36.063Z,87519.86
2019-03-19T00:26:02.905Z,87520.12
2019-03-19T00:28:29.646Z,87517.29
2019-03-19T00:30:56.422Z,87520.16
2019-03-19T00:33:23.205Z,87518.71
2019-03-19T00:35:49.940Z,87529.28
2019-03-19T00:38:16.716Z,87527.03
2019-03-19T00:40:43.441Z,87521.67
2019-03-19T00:43:10.332Z,87518.64
2019-03-19T00:45:37.057Z,87520.48
2019-03-19T00:48:03.968Z,87522.05
2019-03-19T00:50:30.839Z,87515.34
2019-03-19T00:52:57.573Z,87521.31
2019-03-19T00:55:24.290Z,87518.61
2019-03-19T00:57:51.179Z,87514.07
2019-03-19T01:00:19.428Z,87514.55
2019-03-19T01:02:46.141Z,87518.95
2019-03-19T01:05:13.247Z,87516.41
2019-03-19T01:07:39.969Z,87511.88
2019-03-19T01:10:11.798Z,87511.62
2019-03-19T01:12:38.544Z,87509.85
2019-03-19T01:15:09.172Z,87514.22
2019-03-19T01:17:36.035Z,87514.19
2019-03-19T01:20:09.819Z,87512.84
2019-03-19T01:22:36.638Z,87505.91
2019-03-19T01:25:06.681Z,87515.93
2019-03-19T01:27:33.491Z,87513.16
2019-03-19T01:30:00.369Z,87513.65
2019-03-19T01:32:27.088Z,87510.25
2019-03-19T01:34:53.831Z,87514.33
2019-03-19T01:37:20.605Z,87514.96
2019-03-19T01:39:47.377Z,87516.59
2019-03-19T01:42:14.228Z,87515.10
2019-03-19T01:44:40.971Z,87519.73
2019-03-19T01:47:07.691Z,87522.55
2019-03-19T01:49:34.611Z,87524.35
2019-03-19T01:52:01.362Z,87523.58
2019-03-19T01:54:28.094Z,87522.81
2019-03-19T01:56:54.973Z,87518.75
2019-03-19T01:59:21.706Z,87513.45
2019-03-19T02:01:48.444Z,87522.44
2019-03-19T02:04:15.240Z,87517.53
2019-03-19T02:06:41.984Z,87517.50
2019-03-19T02:09:08.707Z,87515.19
2019-03-19T02:11:35.493Z,87517.05
2019-03-19T02:14:02.233Z,87522.95
2019-03-19T02:16:29.112Z,87522.20
2019-03-19T02:18:55.853Z,87518.89
2019-03-19T02:21:22.582Z,87516.61
2019-03-19T02:23:49.464Z,87514.78
2019-03-19T02:26:17.052Z,87519.77
2019-03-19T02:28:43.938Z,87519.54
2019-03-19T02:31:10.720Z,87522.70
2019-03-19T02:33:37.487Z,87520.44
2019-03-19T02:36:04.431Z,87516.87
2019-03-19T02:38:31.159Z,87517.87
2019-03-19T02:40:57.884Z,87515.61
2019-03-19T02:43:24.637Z,87520.72
2019-03-19T02:45:51.374Z,87520.74
2019-03-19T02:48:18.273Z,87523.62
2019-03-19T02:50:45.023Z,87519.74
2019-03-19T02:53:11.769Z,87532.06
2019-03-19T02:55:38.527Z,87522.23
2019-03-19T02:58:05.261Z,87530.33
2019-03-19T03:00:32.128Z,87525.98
2019-03-19T03:02:58.851Z,87527.78
2019-03-19T03:05:25.685Z,87526.83
2019-03-19T03:07:52.663Z,87537.09
2019-03-19T03:10:19.392Z,87537.66
2019-03-19T03:12:46.122Z,87531.73
2019-03-19T03:15:13.898Z,87533.79
2019-03-19T03:17:40.845Z,87524.34
2019-03-19T03:20:13.530Z,87544.28
2019-03-19T03:22:40.255Z,87537.41
2019-03-19T03:25:11.614Z,87538.62
2019-03-19T03:27:38.499Z,87537.08
2019-03-19T03:30:14.797Z,87529.88
2019-03-19T03:32:41.718Z,87537.56
2019-03-19T03:35:10.090Z,87544.75
2019-03-19T03:37:36.796Z,87537.33
2019-03-19T03:40:09.098Z,87545.86
2019-03-19T03:42:35.948Z,87541.28
2019-03-19T03:45:06.581Z,87539.79
2019-03-19T03:47:33.455Z,87541.09
2019-03-19T03:50:00.302Z,87544.66
2019-03-19T03:52:27.221Z,87543.69
2019-03-19T03:54:54.097Z,87546.55
2019-03-19T03:57:20.845Z,87541.73
2019-03-19T03:59:47.558Z,87538.86
2019-03-19T04:02:14.540Z,87537.25
2019-03-19T04:04:41.283Z,87533.21
2019-03-19T04:07:08.048Z,87537.09
2019-03-19T04:09:34.920Z,87540.95
2019-03-19T04:12:01.669Z,87541.28
2019-03-19T04:14:28.551Z,87536.15
2019-03-19T04:16:55.268Z,87537.64
2019-03-19T04:19:22.013Z,87539.41
2019-03-19T04:21:48.894Z,87537.88
2019-03-19T04:24:15.624Z,87545.83
2019-03-19T04:26:42.369Z,87534.84
2019-03-19T04:29:09.235Z,87534.87
2019-03-19T04:31:35.980Z,87533.56
2019-03-19T04:34:02.832Z,87529.15
2019-03-19T04:36:29.698Z,87534.28
2019-03-19T04:38:56.433Z,87532.81
2019-03-19T04:41:23.167Z,87537.92
2019-03-19T04:43:50.053Z,87539.20
2019-03-19T04:46:16.790Z,87534.09
2019-03-19T04:48:43.537Z,87533.58
2019-03-19T04:51:10.409Z,87541.48
2019-03-19T04:53:37.138Z,87546.11
2019-03-19T04:56:03.941Z,87548.06
2019-03-19T04:58:30.818Z,87543.41
2019-03-19T05:00:57.542Z,87550.35
2019-03-19T05:03:24.278Z,87555.66
2019-03-19T05:05:51.054Z,87553.94
2019-03-19T05:08:17.817Z,87556.75
2019-03-19T05:10:44.685Z,87557.42
2019-03-19T05:13:11.439Z,87556.48
2019-03-19T05:15:38.190Z,87557.28
2019-03-19T05:18:05.094Z,87559.84
2019-03-19T05:20:31.855Z,87558.05
2019-03-19T05:22:58.728Z,87562.22
2019-03-19T05:25:25.490Z,87567.38
2019-03-19T05:27:52.229Z,87569.72
2019-03-19T05:30:19.928Z,87574.57
2019-03-19T05:32:46.673Z,87578.92
2019-03-19T05:35:13.449Z,87577.11
2019-03-19T05:37:40.316Z,87576.84
2019-03-19T05:40:15.664Z,87577.31
2019-03-19T05:42:42.707Z,87582.60
2019-03-19T05:45:13.497Z,87588.05
2019-03-19T05:47:40.721Z,87588.06
2019-03-19T05:50:11.521Z,87590.66
2019-03-19T05:52:38.273Z,87593.77
2019-03-19T05:55:07.264Z,87594.25
2019-03-19T05:57:34.177Z,87582.93
2019-03-19T06:00:00.921Z,87594.67
2019-03-19T06:02:27.799Z,87601.83
2019-03-19T06:04:54.526Z,87612.09
2019-03-19T06:07:21.284Z,87599.75
2019-03-19T06:09:48.177Z,87606.41
2019-03-19T06:12:14.911Z,87600.27
2019-03-19T06:14:41.666Z,87606.86
2019-03-19T06:17:08.523Z,87615.56
2019-03-19T06:19:35.272Z,87619.19
2019-03-19T06:22:02.033Z,87626.88
2019-03-19T06:24:28.808Z,87631.55
2019-03-19T06:26:55.540Z,87626.14
2019-03-19T06:29:22.279Z,87624.03
2019-03-19T06:31:49.039Z,87622.45
2019-03-19T06:34:15.787Z,87627.55
2019-03-19T06:36:42.615Z,87630.81
2019-03-19T06:39:09.455Z,87630.08
2019-03-19T06:41:36.163Z,87633.81
2019-03-19T06:44:02.941Z,87635.87
2019-03-19T06:46:29.695Z,87630.45
2019-03-19T06:48:56.426Z,87635.80
2019-03-19T06:51:23.158Z,87639.12
2019-03-19T06:53:49.996Z,87640.64
2019-03-19T06:56:16.722Z,87640.31
2019-03-19T06:58:43.611Z,87643.02
2019-03-19T07:01:10.352Z,87644.30
2019-03-19T07:03:37.092Z,87645.55
2019-03-19T07:06:03.980Z,87647.59
2019-03-19T07:08:30.697Z,87647.31
2019-03-19T07:10:57.440Z,87645.50
2019-03-19T07:13:24.227Z,87651.08
2019-03-19T07:15:50.965Z,87655.63
2019-03-19T07:18:17.846Z,87654.31
2019-03-19T07:20:44.600Z,87656.06
2019-03-19T07:23:11.336Z,87649.59
2019-03-19T07:25:38.233Z,87661.44
2019-03-19T07:28:05.078Z,87658.76
2019-03-19T07:30:31.941Z,87659.94
2019-03-19T07:32:58.793Z,87662.69
2019-03-19T07:35:25.514Z,87663.92
2019-03-19T07:37:52.299Z,87667.23
2019-03-19T07:40:19.163Z,87666.80
2019-03-19T07:42:45.988Z,87667.43
2019-03-19T07:45:20.196Z,87662.84
2019-03-19T07:47:47.076Z,87664.23
2019-03-19T07:50:15.914Z,87661.91
2019-03-19T07:52:42.796Z,87662.70
2019-03-19T07:55:09.625Z,87659.10
2019-03-19T07:57:36.350Z,87661.66
2019-03-19T08:00:10.970Z,87667.34
2019-03-19T08:02:37.715Z,87659.38
2019-03-19T08:05:07.973Z,87663.05
2019-03-19T08:07:34.905Z,87667.96
2019-03-19T08:10:02.146Z,87668.45
2019-03-19T08:12:28.876Z,87666.63
2019-03-19T08:14:55.767Z,87670.20
2019-03-19T08:17:22.529Z,87672.50
2019-03-19T08:19:49.281Z,87668.14
2019-03-19T08:22:16.058Z,87669.97
2019-03-19T08:24:42.810Z,87669.74
2019-03-19T08:27:09.667Z,87669.79
2019-03-19T08:29:36.413Z,87661.50
2019-03-19T08:32:03.142Z,87663.05
2019-03-19T08:34:30.048Z,87662.28
2019-03-19T08:36:56.792Z,87655.23
2019-03-19T08:39:23.575Z,87657.82
2019-03-19T08:41:50.443Z,87651.54
2019-03-19T08:44:27.291Z,87658.23
2019-03-19T08:46:45.719Z,87653.69
2019-03-19T08:49:12.495Z,87642.95
2019-03-19T08:51:39.235Z,87650.41
2019-03-19T08:54:06.122Z,87641.31
2019-03-19T08:56:32.858Z,87644.95
2019-03-19T08:59:05.741Z,87647.63
2019-03-19T09:01:28.281Z,87651.33
2019-03-19T09:03:55.027Z,87654.09
2019-03-19T09:06:21.745Z,87646.97
2019-03-19T09:08:50.335Z,87649.04
2019-03-19T09:11:17.054Z,87646.10
2019-03-19T09:13:43.925Z,87648.24
2019-03-19T09:16:10.676Z,87640.85
2019-03-19T09:18:37.399Z,87637.73
2019-03-19T09:21:04.336Z,87641.61
2019-03-19T09:23:33.196Z,87642.23
2019-03-19T09:25:59.553Z,87642.16
2019-03-19T09:28:26.435Z,87633.75
2019-03-19T09:30:53.170Z,87642.67
2019-03-19T09:33:19.903Z,87645.57
2019-03-19T09:35:46.666Z,87637.64
2019-03-19T09:38:13.393Z,87635.73
2019-03-19T09:40:40.319Z,87637.23
2019-03-19T09:43:07.053Z,87642.42
2019-03-19T09:45:33.806Z,87634.16
2019-03-19T09:48:00.838Z,87637.90
2019-03-19T09:50:27.561Z,87638.56
2019-03-19T09:52:54.326Z,87643.17
2019-03-19T09:55:21.224Z,87639.30
2019-03-19T09:57:48.880Z,87636.63
2019-03-19T10:00:22.041Z,87634.16
2019-03-19T10:02:49.020Z,87631.11
2019-03-19T10:05:16.478Z,87634.20
2019-03-19T10:07:43.232Z,87640.36
2019-03-19T10:10:20.013Z,87633.67
2019-03-19T10:12:46.767Z,87633.42
2019-03-19T10:15:14.093Z,87632.81
2019-03-19T10:17:40.883Z,87637.28
2019-03-19T10:20:18.306Z,87635.19
2019-03-19T10:22:45.750Z,87633.04
2019-03-19T10:25:13.996Z,87630.92
2019-03-19T10:27:40.765Z,87637.69
2019-03-19T10:30:19.528Z,87635.80
2019-03-19T10:32:46.459Z,87627.66
2019-03-19T10:35:13.356Z,87623.34
2019-03-19T10:37:40.103Z,87623.52
2019-03-19T10:40:09.823Z,87626.79
2019-03-19T10:42:36.606Z,87627.34
2019-03-19T10:45:15.589Z,87630.48
2019-03-19T10:47:42.688Z,87632.55
2019-03-19T10:50:26.365Z,87628.81
2019-03-19T10:52:53.359Z,87630.66
2019-03-19T10:55:20.184Z,87630.57
2019-03-19T10:57:46.941Z,87629.12
2019-03-19T11:00:25.732Z,87622.69
2019-03-19T11:02:52.680Z,87627.02
2019-03-19T11:05:25.968Z,87618.89
2019-03-19T11:07:52.713Z,87616.46
2019-03-19T11:10:19.657Z,87608.44
2019-03-19T11:12:46.538Z,87611.33
2019-03-19T11:15:21.967Z,87612.76
2019-03-19T11:17:48.842Z,87612.61
2019-03-19T11:20:17.197Z,87613.15
2019-03-19T11:22:44.038Z,87605.67
2019-03-19T11:25:14.947Z,87606.72
2019-03-19T11:27:42.591Z,87608.64
2019-03-19T11:30:19.295Z,87606.97
2019-03-19T11:32:46.063Z,87606.59
2019-03-19T11:35:13.478Z,87604.50
2019-03-19T11:37:40.351Z,87602.60
2019-03-19T11:40:15.469Z,87601.67
2019-03-19T11:42:42.549Z,87598.09
2019-03-19T11:45:20.165Z,87603.94
2019-03-19T11:47:47.046Z,87606.78
2019-03-19T11:50:23.802Z,87604.48
2019-03-19T11:52:51.213Z,87604.88
2019-03-19T11:55:18.860Z,87602.02
2019-03-19T11:57:45.616Z,87601.88
2019-03-19T12:00:27.468Z,87603.38
2019-03-19T12:02:54.244Z,87604.33
2019-03-19T12:05:21.000Z,87602.80
2019-03-19T12:07:47.872Z,87603.91
2019-03-19T12:10:14.618Z,87603.15
2019-03-19T12:12:41.350Z,87598.05
2019-03-19T12:15:10.246Z,87605.63
2019-03-19T12:17:37.000Z,87597.31
2019-03-19T12:20:09.272Z,87598.53
2019-03-19T12:22:36.034Z,87596.06
2019-03-19T12:25:06.231Z,87599.77
2019-03-19T12:27:33.404Z,87602.72
2019-03-19T12:30:00.116Z,87601.43
2019-03-19T12:32:26.839Z,87599.05
2019-03-19T12:34:53.736Z,87598.66
2019-03-19T12:37:20.486Z,87603.61
2019-03-19T12:39:47.225Z,87594.41
2019-03-19T12:42:14.148Z,87598.40
2019-03-19T12:44:40.916Z,87597.06
2019-03-19T12:47:07.649Z,87597.12
2019-03-19T12:49:34.539Z,87595.50
2019-03-19T12:52:01.269Z,87603.00
2019-03-19T12:54:28.013Z,87598.13
2019-03-19T12:56:54.795Z,87599.52
2019-03-19T12:59:21.556Z,87597.47
2019-03-19T13:01:48.417Z,87594.53
2019-03-19T13:04:15.167Z,87597.08
2019-03-19T13:06:41.923Z,87592.77
2019-03-19T13:09:08.727Z,87586.90
2019-03-19T13:11:35.476Z,87582.30
2019-03-19T13:14:02.326Z,87578.15
2019-03-19T13:16:29.065Z,87576.83
2019-03-19T13:18:55.808Z,87576.25
2019-03-19T13:21:22.587Z,87579.89
2019-03-19T13:23:49.310Z,87578.66
2019-03-19T13:26:16.198Z,87584.34
2019-03-19T13:28:43.425Z,87580.00
2019-03-19T13:31:10.261Z,87588.30
2019-03-19T13:33:37.079Z,87582.09
2019-03-19T13:36:04.775Z,87584.41
2019-03-19T13:38:31.508Z,87587.10
2019-03-19T13:40:58.382Z,87589.06
2019-03-19T13:43:25.173Z,87592.05
2019-03-19T13:45:51.916Z,87586.69
2019-03-19T13:48:18.702Z,87586.97
2019-03-19T13:50:45.455Z,87586.41
2019-03-19T13:53:12.327Z,87585.82
2019-03-19T13:55:39.067Z,87589.36
2019-03-19T13:58:05.804Z,87587.53
2019-03-19T14:00:32.686Z,87591.63
2019-03-19T14:02:59.485Z,87589.30
2019-03-19T14:05:26.189Z,87596.22
2019-03-19T14:07:53.067Z,87591.91
2019-03-19T14:10:20.012Z,87592.92
2019-03-19T14:12:47.252Z,87593.39
2019-03-19T14:15:17.447Z,87591.47
2019-03-19T14:17:44.186Z,87598.69
2019-03-19T14:20:16.913Z,87600.73
2019-03-19T14:22:45.187Z,87602.95
2019-03-19T14:25:14.084Z,87603.67
2019-03-19T14:27:40.980Z,87601.09
2019-03-19T14:30:15.164Z,87603.88
2019-03-19T14:32:41.914Z,87602.95
2019-03-19T14:35:08.903Z,87602.06
2019-03-19T14:37:35.633Z,87598.92
2019-03-19T14:40:09.514Z,87603.91
2019-03-19T14:42:36.405Z,87596.92
2019-03-19T14:45:06.901Z,87599.89
2019-03-19T14:47:33.639Z,87599.23
2019-03-19T14:50:00.449Z,87599.70
2019-03-19T14:52:27.170Z,87603.19
2019-03-19T14:54:54.105Z,87605.65
2019-03-19T14:57:20.862Z,87602.75
2019-03-19T14:59:47.608Z,87599.34
2019-03-19T15:02:14.414Z,87606.41
2019-03-19T15:04:41.154Z,87602.50
2019-03-19T15:07:07.897Z,87599.17
2019-03-19T15:09:34.713Z,87593.97
2019-03-19T15:12:01.445Z,87603.73
2019-03-19T15:14:28.331Z,87601.47
2019-03-19T15:17:04.491Z,87604.04
2019-03-19T15:19:23.620Z,87606.39
2019-03-19T15:21:50.395Z,87595.40
2019-03-19T15:24:17.142Z,87602.95
2019-03-19T15:26:44.003Z,87604.45
2019-03-19T15:29:10.770Z,87603.14
2019-03-19T15:31:37.525Z,87606.73
2019-03-19T15:34:04.421Z,87610.48
2019-03-19T15:36:31.145Z,87618.21
2019-03-19T15:38:57.912Z,87624.56
2019-03-19T15:41:24.768Z,87627.23
2019-03-19T15:43:51.507Z,87632.13
2019-03-19T15:46:18.299Z,87634.75
2019-03-19T15:48:45.213Z,87643.91
2019-03-19T15:51:11.921Z,87643.45
2019-03-19T15:53:38.665Z,87645.87
2019-03-19T15:56:05.549Z,87647.27
2019-03-19T15:58:32.276Z,87652.96
2019-03-19T16:00:59.025Z,87657.88
2019-03-19T16:03:25.917Z,87658.19
2019-03-19T16:05:52.637Z,87662.47
2019-03-19T16:08:19.361Z,87668.75
2019-03-19T16:10:46.242Z,87672.70
2019-03-19T16:13:12.999Z,87676.37
2019-03-19T16:15:39.723Z,87679.88
2019-03-19T16:18:06.593Z,87686.02
2019-03-19T16:20:33.329Z,87692.58
2019-03-19T16:23:00.082Z,87692.59
2019-03-19T16:25:26.948Z,87693.03
2019-03-19T16:28:02.532Z,87700.12
2019-03-19T16:30:29.451Z,87702.84
2019-03-19T16:32:56.184Z,87709.77
2019-03-19T16:35:22.922Z,87717.27
2019-03-19T16:37:49.773Z,87708.36
2019-03-19T16:40:22.143Z,87714.34
2019-03-19T16:42:48.890Z,87721.20
2019-03-19T16:45:17.803Z,87727.79
2019-03-19T16:47:44.440Z,87728.76
2019-03-19T16:50:15.956Z,87731.46
2019-03-19T16:52:42.813Z,87741.42
2019-03-19T16:55:15.825Z,87738.37
2019-03-19T16:57:42.546Z,87747.48
2019-03-19T17:00:14.764Z,87745.70
2019-03-19T17:02:41.513Z,87753.45
2019-03-19T17:05:09.466Z,87760.30
2019-03-19T17:07:36.233Z,87762.76
2019-03-19T17:10:08.186Z,87764.19
2019-03-19T17:12:35.079Z,87765.23
2019-03-19T17:15:03.303Z,87772.17
2019-03-19T17:17:30.030Z,87782.27
2019-03-19T17:19:56.892Z,87787.56
2019-03-19T17:22:23.638Z,87787.12
2019-03-19T17:24:50.387Z,87787.30
2019-03-19T17:27:17.270Z,87793.75
2019-03-19T17:29:44.019Z,87801.94
2019-03-19T17:32:13.274Z,87805.64
2019-03-19T17:34:39.329Z,87809.03
2019-03-19T17:37:06.067Z,87811.07
2019-03-19T17:39:32.979Z,87814.16
2019-03-19T17:41:59.700Z,87815.02
2019-03-19T17:44:26.643Z,87818.00
2019-03-19T17:46:53.493Z,87815.59
2019-03-19T17:49:20.245Z,87826.86
2019-03-19T17:51:46.990Z,87831.38
2019-03-19T17:54:13.847Z,87833.77
2019-03-19T17:56:40.583Z,87841.20
2019-03-19T17:59:07.342Z,87842.98
2019-03-19T18:01:35.915Z,87852.05
2019-03-19T18:04:02.746Z,87855.41
2019-03-19T18:06:29.479Z,87859.86
2019-03-19T18:08:56.361Z,87863.39
2019-03-19T18:11:23.113Z,87867.44
2019-03-19T18:13:49.839Z,87870.05
2019-03-19T18:16:16.727Z,87869.92
2019-03-19T18:18:45.380Z,87874.57
2019-03-19T18:21:12.024Z,87878.62
2019-03-19T18:23:38.794Z,87895.05
2019-03-19T18:26:05.571Z,87901.09
2019-03-19T18:28:32.564Z,87897.41
2019-03-19T18:30:59.328Z,87900.64
2019-03-19T18:33:26.059Z,87905.45
2019-03-19T18:35:55.329Z,87903.91
2019-03-19T18:38:21.408Z,87908.64
2019-03-19T18:40:48.283Z,87913.06
2019-03-19T18:43:15.020Z,87914.73
2019-03-19T18:45:41.769Z,87917.72
2019-03-19T18:48:08.547Z,87910.98
2019-03-19T18:50:35.359Z,87920.83
2019-03-19T18:53:02.244Z,87921.95
2019-03-19T18:55:28.985Z,87926.67
2019-03-19T18:57:55.718Z,87921.09
2019-03-19T19:00:23.411Z,87934.07
2019-03-19T19:02:51.119Z,87933.92
2019-03-19T19:05:23.218Z,87943.79
2019-03-19T19:07:50.251Z,87939.62
2019-03-19T19:10:17.741Z,87941.75
2019-03-19T19:12:44.583Z,87944.48
2019-03-19T19:15:16.307Z,87956.30
2019-03-19T19:17:43.037Z,87961.15
2019-03-19T19:20:13.270Z,87965.75
2019-03-19T19:22:40.094Z,87965.22
2019-03-19T19:25:15.693Z,87966.83
2019-03-19T19:27:42.427Z,87975.13
2019-03-19T19:30:28.111Z,87972.71
2019-03-19T19:33:01.693Z,87971.68
2019-03-19T19:35:23.380Z,87973.52
2019-03-19T19:37:50.244Z,87976.98
2019-03-19T19:40:17.312Z,87980.77
2019-03-19T19:42:44.044Z,87982.59
2019-03-19T19:45:13.647Z,87975.70
2019-03-19T19:47:40.495Z,87985.12
2019-03-19T19:50:17.318Z,87989.07
2019-03-19T19:52:44.059Z,87987.05
2019-03-19T19:55:12.502Z,87990.11
2019-03-19T19:57:39.300Z,87987.05
2019-03-19T20:00:16.372Z,87991.52
2019-03-19T20:02:43.466Z,87994.16
2019-03-19T20:05:10.317Z,87996.63
2019-03-19T20:07:37.058Z,88004.70
2019-03-19T20:10:09.345Z,88006.37
2019-03-19T20:12:36.087Z,88005.61
2019-03-19T20:15:06.607Z,88010.58
2019-03-19T20:17:33.474Z,88005.28
2019-03-19T20:20:00.481Z,88006.58
2019-03-19T20:22:27.270Z,88005.80
2019-03-19T20:24:54.153Z,88005.08
2019-03-19T20:27:20.894Z,88011.85
2019-03-19T20:29:47.646Z,88018.42
2019-03-19T20:32:14.450Z,88027.00
2019-03-19T20:34:41.189Z,88020.67
2019-03-19T20:37:07.917Z,88022.83
2019-03-19T20:39:34.797Z,88027.10
2019-03-19T20:42:01.548Z,88031.58
2019-03-19T20:44:28.271Z,88027.48
2019-03-19T20:46:55.035Z,88031.67
2019-03-19T20:49:21.783Z,88039.22
2019-03-19T20:51:48.721Z,88041.81
2019-03-19T20:54:15.450Z,88043.31
2019-03-19T20:56:42.193Z,88045.50
2019-03-19T20:59:08.964Z,88044.30
2019-03-19T21:01:35.710Z,88043.91
2019-03-19T21:04:02.603Z,88052.44
2019-03-19T21:06:29.341Z,88049.13
2019-03-19T21:08:56.100Z,88055.63
2019-03-19T21:11:22.977Z,88055.92
2019-03-19T21:13:49.729Z,88060.14
2019-03-19T21:16:16.467Z,88067.08
2019-03-19T21:18:43.372Z,88069.67
2019-03-19T21:21:10.101Z,88076.12
2019-03-19T21:23:36.851Z,88071.56
2019-03-19T21:26:03.720Z,88072.27
2019-03-19T21:28:30.470Z,88079.43
2019-03-19T21:30:57.223Z,88076.22
2019-03-19T21:33:24.110Z,88077.95
2019-03-19T21:35:50.843Z,88085.08
2019-03-19T21:38:17.581Z,88081.23
2019-03-19T21:40:44.447Z,88082.59
2019-03-19T21:43:11.198Z,88086.84
2019-03-19T21:45:38.028Z,88088.64
2019-03-19T21:48:04.859Z,88090.63
2019-03-19T21:50:31.614Z,88093.53
2019-03-19T21:52:58.537Z,88096.92
2019-03-19T21:55:25.276Z,88094.69
2019-03-19T21:57:52.002Z,88099.66
2019-03-19T22:00:24.862Z,88106.16
2019-03-19T22:02:51.586Z,88104.34
2019-03-19T22:05:18.396Z,88099.76
2019-03-19T22:07:45.341Z,88101.80
2019-03-19T22:10:15.476Z,88104.63
2019-03-19T22:12:42.499Z,88107.70
2019-03-19T22:15:21.313Z,88097.78
2019-03-19T22:17:48.189Z,88104.05
2019-03-19T22:20:14.999Z,88106.39
2019-03-19T22:22:41.738Z,88105.91
2019-03-19T22:25:12.047Z,88106.11
2019-03-19T22:27:38.734Z,88105.11
2019-03-19T22:30:21.398Z,88109.44
2019-03-19T22:32:48.144Z,88104.76
2019-03-19T22:35:15.161Z,88099.72
2019-03-19T22:37:42.044Z,88107.40
2019-03-19T22:40:17.836Z,88104.81
2019-03-19T22:42:44.821Z,88105.45
2019-03-19T22:45:13.860Z,88107.31
2019-03-19T22:47:40.601Z,88115.34
2019-03-19T22:50:17.710Z,88110.78
2019-03-19T22:52:44.607Z,88111.79
2019-03-19T22:55:12.728Z,88109.95
2019-03-19T22:57:39.736Z,88113.05
2019-03-19T23:00:16.815Z,88112.80
2019-03-19T23:02:43.683Z,88109.23
2019-03-19T23:05:13.131Z,88107.77
2019-03-19T23:07:39.864Z,88111.67
2019-03-19T23:10:06.726Z,88112.95
2019-03-19T23:12:33.469Z,88114.80
2019-03-19T23:15:00.355Z,88111.75
2019-03-19T23:17:27.271Z,88125.19
2019-03-19T23:19:54.017Z,88129.68
2019-03-19T23:22:20.751Z,88131.81
2019-03-19T23:24:47.538Z,88133.13
2019-03-19T23:27:14.270Z,88131.14
2019-03-19T23:29:41.163Z,88132.95
2019-03-19T23:32:07.887Z,88139.93
2019-03-19T23:34:38.432Z,88147.67
2019-03-19T23:37:03.395Z,88140.50
2019-03-19T23:39:30.142Z,88144.41
2019-03-19T23:41:56.854Z,88143.94
2019-03-19T23:44:23.636Z,88142.39
2019-03-19T23:46:50.367Z,88149.67
2019-03-19T23:49:17.223Z,88153.56
2019-03-19T23:51:43.968Z,88154.38
2019-03-19T23:54:10.722Z,88157.29
2019-03-19T23:56:37.604Z,88160.16
2019-03-19T23:59:04.430Z,88160.20
